Time;durP1;ratioP1;P1;durP2;ratioP2;P2;SDS_P1;SDS_P2;PMS_P1;PMS_P2;Temp;Humidity;BMP_temperature;BMP_pressure;BME280_temperature;BME280_humidity;BME280_pressure;Samples;Min_cycle;Max_cycle;Signal;HPM_P1;HPM_P2
2023/10/07 00:01:00;;;;;;;2.97;1.80;;;;;;;15.85;65.67;101127.19;5032041;28;20352;-73
2023/10/07 00:03:29;;;;;;;4.53;2.07;;;;;;;15.84;67.19;101120.34;5029787;28;20798;-73
2023/10/07 00:06:00;;;;;;;3.73;1.50;;;;;;;15.81;65.38;101118.34;5032571;28;20249;-72
2023/10/07 00:08:28;;;;;;;2.83;1.73;;;;;;;15.81;68.09;101107.72;5032153;28;21193;-73
2023/10/07 00:10:58;;;;;;;3.37;1.83;;;;;;;15.76;65.45;101110.63;5032227;28;20638;-73
2023/10/07 00:13:27;;;;;;;4.73;2.30;;;;;;;15.74;65.41;101105.66;5029071;28;20229;-73
2023/10/07 00:15:56;;;;;;;5.23;2.10;;;;;;;15.72;68.96;101107.13;5031348;28;20353;-73
2023/10/07 00:18:26;;;;;;;3.47;1.80;;;;;;;15.70;66.12;101106.69;5027804;28;20238;-73
2023/10/07 00:20:56;;;;;;;3.03;1.60;;;;;;;15.67;66.41;101110.81;5033381;28;20311;-72
2023/10/07 00:23:27;;;;;;;3.33;2.20;;;;;;;15.68;66.54;101112.38;5031777;28;20253;-72
2023/10/07 00:25:57;;;;;;;5.90;2.27;;;;;;;15.71;66.36;101103.69;5025936;28;20237;-73
2023/10/07 00:28:32;;;;;;;5.57;1.90;;;;;;;15.73;67.11;101112.09;5032288;28;20854;-73
2023/10/07 00:31:02;;;;;;;7.47;2.37;;;;;;;15.76;65.98;101107.97;5028638;28;21482;-73
2023/10/07 00:33:45;;;;;;;3.20;1.73;;;;;;;15.78;66.82;101097.75;5029862;28;20236;-73
2023/10/07 00:36:20;;;;;;;2.93;1.83;;;;;;;15.82;67.71;101102.03;5029733;28;20206;-74
2023/10/07 00:38:48;;;;;;;4.10;1.80;;;;;;;15.88;65.85;101108.63;5030521;28;20217;-73
2023/10/07 00:41:18;;;;;;;5.33;2.07;;;;;;;15.91;65.59;101104.50;5022845;28;20226;-73
2023/10/07 00:43:45;;;;;;;5.97;2.17;;;;;;;15.94;65.93;101101.16;5026560;28;20468;-73
2023/10/07 00:46:21;;;;;;;4.10;2.30;;;;;;;15.97;66.61;101101.22;5046094;28;21446;-73
2023/10/07 00:48:52;;;;;;;8.87;2.20;;;;;;;15.99;66.75;101082.25;5029790;28;20233;-73
2023/10/07 00:51:33;;;;;;;2.73;1.80;;;;;;;16.03;66.26;101088.41;5030942;28;22341;-73
2023/10/07 00:54:15;;;;;;;2.83;2.03;;;;;;;16.08;65.64;101090.78;5003018;22;20302;-71
2023/10/07 00:56:43;;;;;;;5.63;2.20;;;;;;;16.12;66.82;101086.31;4947072;28;20230;-71
2023/10/07 00:59:14;;;;;;;4.40;1.97;;;;;;;16.15;66.51;101078.38;4969808;28;20210;-71
2023/10/07 01:01:45;;;;;;;3.57;1.83;;;;;;;16.19;66.36;101075.81;4952635;28;20214;-70
2023/10/07 01:04:16;;;;;;;2.97;1.80;;;;;;;16.19;66.27;101079.22;4968392;28;20229;-70
2023/10/07 01:06:45;;;;;;;5.13;2.40;;;;;;;16.21;69.51;101070.88;4951236;28;20820;-71
2023/10/07 01:09:14;;;;;;;5.70;2.07;;;;;;;16.18;67.81;101077.69;4965031;28;20290;-71
2023/10/07 01:11:41;;;;;;;3.00;1.87;;;;;;;16.18;68.04;101071.56;4966266;28;21737;-71
2023/10/07 01:14:11;;;;;;;3.13;1.80;;;;;;;16.16;65.35;101065.84;4947781;28;20215;-71
2023/10/07 01:16:44;;;;;;;1.93;1.70;;;;;;;16.16;66.19;101063.19;4966003;28;21132;-70
2023/10/07 01:19:28;;;;;;;2.60;2.00;;;;;;;16.17;68.37;101068.16;4969088;28;20207;-69
2023/10/07 01:21:58;;;;;;;4.23;2.07;;;;;;;16.19;65.89;101068.56;4943527;28;20231;-70
2023/10/07 01:24:49;;;;;;;4.07;2.03;;;;;;;16.20;65.89;101056.03;4942015;28;20846;-70
2023/10/07 01:27:21;;;;;;;4.90;2.00;;;;;;;16.21;66.38;101061.00;4968316;28;20199;-70
2023/10/07 01:29:48;;;;;;;4.30;2.03;;;;;;;16.22;65.91;101051.09;4971474;28;20215;-70
2023/10/07 01:32:16;;;;;;;3.20;2.10;;;;;;;16.21;68.15;101052.25;4944515;28;20249;-70
2023/10/07 01:34:47;;;;;;;4.40;1.93;;;;;;;16.21;66.16;101050.34;4967382;28;20945;-70
2023/10/07 01:37:15;;;;;;;4.53;2.27;;;;;;;16.23;67.26;101057.97;4944539;28;20234;-69
2023/10/07 01:39:43;;;;;;;5.43;2.00;;;;;;;16.24;65.28;101051.56;4949920;28;20211;-70
2023/10/07 01:42:21;;;;;;;3.13;2.00;;;;;;;16.24;64.77;101046.97;4973732;28;20223;-70
2023/10/07 01:44:54;;;;;;;7.10;2.20;;;;;;;16.24;65.33;101051.56;4974980;28;20222;-70
2023/10/07 01:47:24;;;;;;;5.43;2.17;;;;;;;16.25;67.78;101055.75;4974146;28;20245;-70
2023/10/07 01:49:53;;;;;;;2.90;1.83;;;;;;;16.26;66.09;101044.72;4955912;28;20219;-69
2023/10/07 01:52:24;;;;;;;4.83;2.07;;;;;;;16.25;66.01;101039.75;4950131;28;20245;-70
2023/10/07 01:54:52;;;;;;;3.20;2.07;;;;;;;16.27;66.76;101042.84;4954760;28;20223;-70
2023/10/07 01:57:19;;;;;;;6.70;2.10;;;;;;;16.27;67.95;101040.94;4969918;28;21022;-70
2023/10/07 01:59:46;;;;;;;4.93;1.90;;;;;;;16.25;68.93;101037.84;4970236;28;20429;-70
2023/10/07 02:02:14;;;;;;;3.40;1.90;;;;;;;16.26;68.12;101035.97;4957450;28;20239;-70
2023/10/07 02:04:42;;;;;;;3.87;2.00;;;;;;;16.23;66.38;101034.78;4969798;28;20416;-70
2023/10/07 02:07:08;;;;;;;4.47;2.57;;;;;;;16.21;66.20;101034.38;4945738;28;20212;-70
2023/10/07 02:09:40;;;;;;;3.90;1.60;;;;;;;16.18;67.40;101016.41;4970460;28;20238;-70
2023/10/07 02:12:09;;;;;;;6.03;2.20;;;;;;;16.17;69.17;101032.75;4970949;28;20235;-70
2023/10/07 02:14:36;;;;;;;3.93;2.33;;;;;;;16.14;67.06;101038.78;4968194;28;20291;-70
2023/10/07 02:17:03;;;;;;;2.23;1.77;;;;;;;16.10;66.75;101033.38;4972160;28;20212;-70
2023/10/07 02:19:31;;;;;;;3.73;2.10;;;;;;;16.06;68.41;101021.88;4954619;28;20226;-70
2023/10/07 02:22:00;;;;;;;6.00;2.00;;;;;;;16.00;69.57;101031.25;4973691;28;20229;-70
2023/10/07 02:24:29;;;;;;;3.83;2.03;;;;;;;15.97;69.44;101044.50;4968709;28;20210;-70
2023/10/07 02:26:59;;;;;;;5.87;2.10;;;;;;;15.91;68.06;101030.72;4950333;28;20565;-70
2023/10/07 02:29:28;;;;;;;3.90;2.20;;;;;;;15.87;67.92;101021.09;4948542;28;20222;-70
2023/10/07 02:32:05;;;;;;;4.73;2.00;;;;;;;15.84;67.18;101027.13;4971950;28;20267;-70
2023/10/07 02:34:33;;;;;;;4.60;1.87;;;;;;;15.83;67.82;101022.94;4968991;28;20544;-69
2023/10/07 02:37:12;;;;;;;4.07;1.97;;;;;;;15.81;68.39;101025.16;4948487;28;20222;-70
2023/10/07 02:39:45;;;;;;;3.27;2.27;;;;;;;15.78;68.33;101023.22;4970413;28;20233;-70
2023/10/07 02:42:13;;;;;;;5.67;2.20;;;;;;;15.75;68.12;101040.66;4970018;28;20727;-70
2023/10/07 02:44:41;;;;;;;2.73;1.90;;;;;;;15.73;69.92;101026.13;4947044;28;20300;-70
2023/10/07 02:47:11;;;;;;;3.53;2.13;;;;;;;15.71;68.05;101015.84;4970579;28;20222;-70
2023/10/07 02:49:40;;;;;;;3.83;2.00;;;;;;;15.70;67.66;101029.50;4971394;28;20297;-69
2023/10/07 02:52:16;;;;;;;4.20;1.90;;;;;;;15.69;67.60;101042.00;4970212;28;20948;-70
2023/10/07 02:54:43;;;;;;;2.90;1.90;;;;;;;15.70;68.16;101034.81;4971575;28;20230;-70
2023/10/07 02:57:09;;;;;;;4.53;2.17;;;;;;;15.68;67.19;101029.84;4974496;28;20206;-70
2023/10/07 02:59:42;;;;;;;3.50;1.90;;;;;;;15.68;67.79;101027.16;4954389;28;20598;-70
2023/10/07 03:02:26;;;;;;;6.47;2.20;;;;;;;15.66;67.64;101026.75;4972381;28;20227;-69
2023/10/07 03:05:12;;;;;;;3.43;1.90;;;;;;;15.68;67.88;101031.75;4953283;28;20305;-70
2023/10/07 03:07:41;;;;;;;6.33;2.00;;;;;;;15.67;70.25;101033.63;4949458;28;20296;-70
2023/10/07 03:10:16;;;;;;;6.30;2.07;;;;;;;15.67;68.02;101033.63;4972656;28;20211;-70
2023/10/07 03:12:47;;;;;;;3.70;1.80;;;;;;;15.66;68.48;101031.28;4971827;28;20241;-70
2023/10/07 03:15:28;;;;;;;2.93;1.73;;;;;;;15.65;67.82;101027.88;4955617;28;20221;-70
2023/10/07 03:17:57;;;;;;;3.30;2.10;;;;;;;15.63;67.40;101024.78;4970899;28;20228;-70
2023/10/07 03:20:30;;;;;;;5.40;2.17;;;;;;;15.63;68.47;101029.34;4949018;28;20506;-70
2023/10/07 03:26:05;;;;;;;3.47;2.20;;;;;;;15.61;69.23;101007.59;4954085;28;20216;-70
2023/10/07 03:28:36;;;;;;;3.83;2.10;;;;;;;15.59;68.95;101007.19;4954110;28;20211;-70
2023/10/07 03:31:08;;;;;;;3.50;2.63;;;;;;;15.58;67.83;101019.72;4970792;28;20948;-71
2023/10/07 03:33:44;;;;;;;5.47;2.10;;;;;;;15.57;67.91;101015.53;4970506;28;20230;-71
2023/10/07 03:36:30;;;;;;;3.43;1.80;;;;;;;15.56;68.48;101037.16;4971673;28;20213;-70
2023/10/07 03:39:10;;;;;;;7.10;2.27;;;;;;;15.52;70.27;101025.69;4969135;28;20789;-70
2023/10/07 03:41:37;;;;;;;4.80;2.27;;;;;;;15.54;69.34;101024.22;4967478;28;20272;-70
2023/10/07 03:44:03;;;;;;;5.60;2.30;;;;;;;15.53;69.26;101019.25;4969729;28;20219;-69
2023/10/07 03:46:30;;;;;;;4.23;1.80;;;;;;;15.53;68.41;101020.00;4968287;28;20202;-70
2023/10/07 03:48:58;;;;;;;4.70;2.17;;;;;;;15.55;69.42;101025.75;4969064;28;21127;-70
2023/10/07 03:51:30;;;;;;;4.43;2.10;;;;;;;15.59;68.19;101018.63;4971409;28;20251;-70
2023/10/07 03:54:00;;;;;;;4.30;2.30;;;;;;;15.61;68.41;101008.38;4970772;28;20215;-70
2023/10/07 03:56:27;;;;;;;3.07;1.90;;;;;;;15.61;71.23;101010.28;4971762;28;20634;-70
2023/10/07 03:58:55;;;;;;;5.03;2.13;;;;;;;15.61;69.21;101008.38;4971188;28;20238;-70
2023/10/07 04:01:22;;;;;;;4.60;2.23;;;;;;;15.60;68.00;100995.41;4965861;28;21111;-70
2023/10/07 04:03:50;;;;;;;5.23;2.30;;;;;;;15.58;69.53;100993.09;4969000;28;20937;-70
2023/10/07 04:06:20;;;;;;;4.23;2.50;;;;;;;15.56;68.13;100995.34;4970048;28;21278;-70
2023/10/07 04:08:52;;;;;;;4.60;1.90;;;;;;;15.57;68.37;100994.22;4969837;28;20834;-70
2023/10/07 04:11:25;;;;;;;2.67;1.80;;;;;;;15.54;68.58;100992.28;4966040;28;21552;-70
2023/10/07 04:13:53;;;;;;;3.93;2.27;;;;;;;15.50;69.05;100982.66;4971127;28;22127;-70
2023/10/07 04:16:24;;;;;;;4.93;2.23;;;;;;;15.47;69.62;100981.47;4970938;28;20217;-70
2023/10/07 04:18:50;;;;;;;4.80;1.90;;;;;;;15.43;69.75;100979.84;4970970;28;20353;-70
2023/10/07 04:21:19;;;;;;;3.47;2.03;;;;;;;15.39;69.82;100969.13;4967984;28;20211;-70
2023/10/07 04:23:46;;;;;;;5.13;2.60;;;;;;;15.37;68.87;100976.69;4969663;28;20300;-70
2023/10/07 04:26:19;;;;;;;5.43;2.20;;;;;;;15.34;69.25;100969.41;4973572;28;20215;-70
2023/10/07 04:28:48;;;;;;;5.43;2.30;;;;;;;15.30;69.72;100968.53;4969131;28;20256;-71
2023/10/07 04:31:14;;;;;;;5.23;2.57;;;;;;;15.28;71.49;100968.09;4970518;28;20233;-70
2023/10/07 04:33:42;;;;;;;3.70;2.10;;;;;;;15.25;69.88;100970.66;4943868;28;20998;-70
2023/10/07 04:36:13;;;;;;;4.77;2.63;;;;;;;15.22;69.94;100974.03;4971263;28;20210;-70
2023/10/07 04:38:54;;;;;;;5.20;2.80;;;;;;;15.21;69.58;100969.84;4969694;28;20219;-70
2023/10/07 04:41:36;;;;;;;5.27;2.63;;;;;;;15.16;70.29;100970.09;4969276;28;20214;-70
2023/10/07 04:44:23;;;;;;;3.90;2.10;;;;;;;15.12;70.98;100969.25;4967066;28;20214;-70
2023/10/07 04:46:57;;;;;;;7.70;2.70;;;;;;;15.11;71.94;100967.72;4968448;28;20205;-70
2023/10/07 04:49:36;;;;;;;4.27;2.10;;;;;;;15.08;70.95;100955.09;4965464;28;20241;-70
2023/10/07 04:52:05;;;;;;;2.93;2.27;;;;;;;15.06;70.35;100957.34;4968229;28;20907;-71
2023/10/07 04:54:35;;;;;;;4.27;2.47;;;;;;;15.03;70.98;100974.75;4971207;28;21363;-71
2023/10/07 04:57:02;;;;;;;5.13;2.20;;;;;;;15.02;70.90;100970.56;4966867;28;20680;-70
2023/10/07 04:59:29;;;;;;;5.30;2.10;;;;;;;15.02;71.63;100978.53;4967786;28;20272;-70
2023/10/07 05:02:01;;;;;;;4.73;2.43;;;;;;;15.06;71.63;100975.94;4970624;28;21566;-70
2023/10/07 05:04:28;;;;;;;7.10;2.80;;;;;;;15.09;73.79;100976.03;4969312;28;20296;-70
2023/10/07 05:06:54;;;;;;;5.37;2.30;;;;;;;15.15;71.65;100987.94;4967744;28;20278;-70
2023/10/07 05:09:21;;;;;;;4.40;2.53;;;;;;;15.22;71.29;100998.72;4968328;28;20206;-70
2023/10/07 05:11:49;;;;;;;5.40;2.20;;;;;;;15.27;70.98;100993.16;4966588;28;20228;-70
2023/10/07 05:14:17;;;;;;;4.27;2.53;;;;;;;15.31;71.12;100998.56;4968793;28;20212;-70
2023/10/07 05:16:46;;;;;;;5.13;2.03;;;;;;;15.36;70.97;100999.09;4968841;28;20777;-70
2023/10/07 05:19:19;;;;;;;6.80;2.57;;;;;;;15.41;72.09;100992.72;4967159;28;20238;-70
2023/10/07 05:21:47;;;;;;;3.43;2.23;;;;;;;15.45;70.69;101007.66;4970107;28;21214;-70
2023/10/07 05:24:17;;;;;;;4.70;2.47;;;;;;;15.49;70.44;100999.75;4968852;28;20223;-70
2023/10/07 05:26:43;;;;;;;4.23;2.30;;;;;;;15.53;70.41;101001.34;4967176;28;20222;-70
2023/10/07 05:29:12;;;;;;;3.80;2.27;;;;;;;15.57;70.02;101004.88;4970016;28;20209;-70
2023/10/07 05:31:39;;;;;;;5.33;2.33;;;;;;;15.61;69.85;100994.28;4945043;28;20212;-70
2023/10/07 05:34:06;;;;;;;5.13;2.07;;;;;;;15.65;70.60;100993.28;4967488;28;20206;-70
2023/10/07 05:36:33;;;;;;;4.17;2.10;;;;;;;15.68;70.93;100991.81;4972263;28;20216;-70
2023/10/07 05:39:00;;;;;;;3.87;2.27;;;;;;;15.70;69.71;100998.31;4968516;28;20231;-69
2023/10/07 05:41:28;;;;;;;6.13;2.40;;;;;;;15.75;69.13;101002.59;4968964;28;20605;-70
2023/10/07 05:43:55;;;;;;;3.33;2.03;;;;;;;15.76;69.15;101007.56;4970355;28;20218;-70
2023/10/07 05:46:22;;;;;;;4.50;2.20;;;;;;;15.78;69.12;101021.28;4968576;28;20346;-70
2023/10/07 05:48:51;;;;;;;3.53;1.90;;;;;;;15.81;68.98;101009.19;4967801;28;20297;-70
2023/10/07 05:51:17;;;;;;;3.80;2.10;;;;;;;15.85;72.00;101015.34;4969842;28;20901;-70
2023/10/07 05:53:48;;;;;;;3.90;2.30;;;;;;;15.85;69.28;100996.72;4946925;28;20231;-71
2023/10/07 05:56:15;;;;;;;5.03;2.20;;;;;;;15.87;69.38;101003.22;4967859;28;20226;-70
2023/10/07 05:58:43;;;;;;;4.80;2.07;;;;;;;15.90;70.85;100999.09;4968573;28;20233;-70
2023/10/07 06:01:11;;;;;;;4.83;2.13;;;;;;;15.91;71.27;101000.63;4965054;28;20214;-70
2023/10/07 06:03:39;;;;;;;5.00;2.23;;;;;;;15.95;69.41;101001.47;4971395;28;20281;-69
2023/10/07 06:06:06;;;;;;;7.53;2.50;;;;;;;15.98;68.55;101009.53;4966870;28;20207;-70
2023/10/07 06:08:33;;;;;;;3.67;2.10;;;;;;;16.04;69.03;101012.72;4969883;28;20200;-70
2023/10/07 06:11:01;;;;;;;4.70;2.33;;;;;;;16.08;68.97;101006.31;4967423;28;20211;-70
2023/10/07 06:13:29;;;;;;;3.33;2.17;;;;;;;16.13;68.35;100994.59;4946081;28;20273;-70
2023/10/07 06:15:57;;;;;;;2.83;1.93;;;;;;;16.18;68.99;101004.97;4968203;28;20718;-70
2023/10/07 06:18:24;;;;;;;3.60;2.10;;;;;;;16.22;68.31;100998.59;4966580;28;21261;-71
2023/10/07 06:20:52;;;;;;;3.63;1.97;;;;;;;16.26;67.77;101002.06;4968717;28;22027;-70
2023/10/07 06:23:19;;;;;;;5.20;2.13;;;;;;;16.29;69.46;101009.38;4967710;28;20231;-69
2023/10/07 06:25:49;;;;;;;3.23;1.70;;;;;;;16.31;68.03;100998.38;4950464;28;20293;-70
2023/10/07 06:28:29;;;;;;;3.57;2.20;;;;;;;16.33;68.02;101012.09;4973587;28;21630;-70
2023/10/07 06:31:01;;;;;;;4.33;2.43;;;;;;;16.35;67.85;101004.53;4971446;28;20204;-70
2023/10/07 06:33:27;;;;;;;4.37;2.20;;;;;;;16.38;69.09;101001.16;4973568;28;20382;-70
2023/10/07 06:35:55;;;;;;;3.97;2.07;;;;;;;16.39;67.54;101006.16;4970012;28;20579;-70
2023/10/07 06:38:22;;;;;;;3.93;2.23;;;;;;;16.42;68.33;101004.69;4973768;28;20919;-70
2023/10/07 06:40:49;;;;;;;6.77;2.23;;;;;;;16.44;68.34;101000.56;4965898;28;20211;-70
2023/10/07 06:43:21;;;;;;;3.27;2.10;;;;;;;16.46;68.81;101008.94;4969920;28;21447;-71
2023/10/07 06:45:48;;;;;;;4.77;2.13;;;;;;;16.50;70.67;101001.03;4972462;28;20588;-70
2023/10/07 06:48:23;;;;;;;8.00;2.37;;;;;;;16.48;68.10;101011.28;4970930;28;20208;-70
2023/10/07 06:50:52;;;;;;;3.27;1.73;;;;;;;16.49;66.96;101007.47;4966957;28;23598;-70
2023/10/07 06:53:22;;;;;;;3.73;2.00;;;;;;;16.51;67.41;101008.66;4969366;28;20235;-70
2023/10/07 06:55:49;;;;;;;4.53;2.20;;;;;;;16.53;69.81;100995.78;4969561;28;20643;-69
2023/10/07 06:58:15;;;;;;;3.73;1.93;;;;;;;16.55;67.30;101006.84;4969084;28;20367;-70
2023/10/07 07:00:48;;;;;;;5.80;2.40;;;;;;;16.54;68.55;101015.97;4971795;28;20588;-69
2023/10/07 07:03:17;;;;;;;5.57;2.33;;;;;;;16.55;67.45;101009.50;4969372;28;20729;-70
2023/10/07 07:05:45;;;;;;;3.43;1.63;;;;;;;16.55;67.22;101011.41;4972282;28;20677;-70
2023/10/07 07:08:12;;;;;;;3.70;2.07;;;;;;;16.56;68.72;101013.72;4968646;28;20211;-70
2023/10/07 07:10:40;;;;;;;2.53;1.83;;;;;;;16.51;67.68;101014.00;4945392;28;20598;-70
2023/10/07 07:13:13;;;;;;;5.70;2.17;;;;;;;16.53;67.57;101022.44;4942544;28;20232;-70
2023/10/07 07:15:41;;;;;;;4.63;2.00;;;;;;;16.52;67.87;101033.44;4971104;28;20208;-70
2023/10/07 07:18:14;;;;;;;4.17;1.80;;;;;;;16.49;68.06;101026.91;4965045;28;20203;-70
2023/10/07 07:20:53;;;;;;;5.63;2.07;;;;;;;16.52;67.40;101044.88;4973093;28;20224;-69
2023/10/07 07:23:22;;;;;;;4.93;2.40;;;;;;;16.52;67.18;101050.22;4972944;28;20322;-69
2023/10/07 07:25:53;;;;;;;2.67;1.83;;;;;;;16.54;69.56;101039.97;4972834;28;20212;-69
2023/10/07 07:28:19;;;;;;;3.47;1.80;;;;;;;16.55;67.33;101041.50;4972988;28;20216;-70
2023/10/07 07:30:46;;;;;;;3.70;1.97;;;;;;;16.57;66.83;101049.91;4975324;28;20680;-69
2023/10/07 07:33:15;;;;;;;5.43;2.30;;;;;;;16.57;66.58;101047.22;4973886;28;20889;-70
2023/10/07 07:35:43;;;;;;;4.90;1.90;;;;;;;16.61;69.12;101053.41;4972914;28;21178;-69
2023/10/07 07:38:29;;;;;;;2.63;1.70;;;;;;;16.63;67.23;101059.19;4973344;28;20346;-70
2023/10/07 07:41:05;;;;;;;4.43;2.03;;;;;;;16.66;67.26;101063.78;4971661;28;20231;-70
2023/10/07 07:43:33;;;;;;;4.27;2.13;;;;;;;16.66;66.89;101057.69;4973014;28;20232;-70
2023/10/07 07:46:26;;;;;;;3.40;1.87;;;;;;;16.69;68.86;101060.41;4974309;28;20806;-70
2023/10/07 07:48:53;;;;;;;4.03;2.00;;;;;;;16.62;68.00;101057.63;4973152;28;20219;-70
2023/10/07 07:51:24;;;;;;;4.47;2.17;;;;;;;16.63;67.79;101069.84;4972172;28;20211;-70
2023/10/07 07:53:51;;;;;;;4.30;2.17;;;;;;;16.62;70.76;101060.28;4974034;28;20301;-70
2023/10/07 07:56:19;;;;;;;4.13;2.10;;;;;;;16.60;67.77;101061.75;4947274;28;20894;-70
2023/10/07 07:58:47;;;;;;;3.27;1.80;;;;;;;16.62;69.31;101076.28;4970862;28;20212;-69
2023/10/07 08:01:16;;;;;;;3.20;1.93;;;;;;;16.62;69.15;101078.19;4971940;28;20208;-69
2023/10/07 08:03:42;;;;;;;3.10;2.07;;;;;;;16.59;68.21;101073.56;4973004;28;20262;-70
2023/10/07 08:06:11;;;;;;;2.53;1.90;;;;;;;16.64;68.12;101082.03;4973185;28;20211;-70
2023/10/07 08:08:38;;;;;;;3.17;2.47;;;;;;;16.66;68.43;101066.44;4969573;28;20219;-70
2023/10/07 08:11:05;;;;;;;3.50;1.90;;;;;;;16.67;68.54;101067.22;4947641;28;20223;-70
2023/10/07 08:13:33;;;;;;;3.77;2.00;;;;;;;16.67;68.21;101069.91;4973204;28;20231;-70
2023/10/07 08:16:06;;;;;;;2.90;1.80;;;;;;;16.70;69.59;101077.19;4970919;28;20707;-70
2023/10/07 08:18:32;;;;;;;2.73;1.80;;;;;;;16.75;68.67;101090.22;4972699;28;20705;-70
2023/10/07 08:21:07;;;;;;;4.87;1.90;;;;;;;16.74;68.01;101091.34;4973850;28;22803;-70
2023/10/07 08:23:36;;;;;;;6.30;3.30;;;;;;;16.77;68.55;101088.75;4975055;28;20353;-70
2023/10/07 08:26:09;;;;;;;2.23;1.73;;;;;;;16.77;68.28;101086.06;4968667;28;20988;-70
2023/10/07 08:28:42;;;;;;;2.63;1.83;;;;;;;16.78;68.24;101097.53;4974213;28;20778;-69
2023/10/07 08:31:15;;;;;;;3.93;2.03;;;;;;;16.81;68.51;101084.25;4971774;28;20203;-70
2023/10/07 08:33:42;;;;;;;6.17;2.10;;;;;;;16.88;69.33;101083.63;4973035;28;20230;-70
2023/10/07 08:36:09;;;;;;;2.87;1.80;;;;;;;16.89;69.34;101085.94;4972404;28;20230;-70
2023/10/07 08:38:43;;;;;;;3.90;2.30;;;;;;;16.93;69.99;101094.75;4972925;28;20408;-70
2023/10/07 08:41:15;;;;;;;4.67;2.10;;;;;;;16.95;69.11;101087.19;4970391;28;20308;-70
2023/10/07 08:43:45;;;;;;;2.63;1.63;;;;;;;16.99;68.26;101087.22;4969665;28;20232;-70
2023/10/07 08:46:16;;;;;;;3.00;1.87;;;;;;;16.97;67.35;101079.56;4972131;28;21418;-70
2023/10/07 08:48:49;;;;;;;4.53;1.80;;;;;;;16.96;67.81;101093.25;4995179;22;20235;-70
2023/10/07 08:51:21;;;;;;;4.20;2.40;;;;;;;17.01;69.08;101093.75;4991483;28;20234;-70
2023/10/07 08:53:48;;;;;;;2.87;1.90;;;;;;;17.02;68.34;101097.97;4995845;28;20290;-70
2023/10/07 08:56:17;;;;;;;4.33;2.10;;;;;;;17.03;68.75;101096.06;4995296;28;20211;-69
2023/10/07 08:58:48;;;;;;;4.60;2.23;;;;;;;17.05;68.40;101093.81;4998792;28;20560;-70
2023/10/07 09:01:18;;;;;;;3.43;2.07;;;;;;;17.05;68.18;101086.59;4993733;28;20242;-70
2023/10/07 09:03:47;;;;;;;4.53;2.20;;;;;;;17.08;68.33;101098.44;4997015;28;21008;-69
2023/10/07 09:06:14;;;;;;;3.40;1.90;;;;;;;17.08;68.03;101095.78;4995281;28;20211;-70
2023/10/07 09:08:43;;;;;;;4.13;2.20;;;;;;;17.09;68.02;101091.97;4994066;28;20234;-69
2023/10/07 09:11:12;;;;;;;5.50;2.00;;;;;;;17.09;68.38;101091.97;4990736;28;20356;-69
2023/10/07 09:13:39;;;;;;;7.60;2.10;;;;;;;17.10;68.15;101082.84;4994837;28;20234;-69
2023/10/07 09:16:10;;;;;;;3.10;2.33;;;;;;;17.09;68.25;101078.63;4994793;28;20306;-69
2023/10/07 09:18:39;;;;;;;4.17;2.00;;;;;;;17.13;68.49;101084.81;4997286;28;20838;-70
2023/10/07 09:21:09;;;;;;;3.07;2.00;;;;;;;17.13;67.61;101074.13;4985808;28;20331;-69
2023/10/07 09:23:42;;;;;;;4.80;2.30;;;;;;;17.12;67.31;101073.34;4993696;28;20219;-69
2023/10/07 09:26:15;;;;;;;4.33;2.20;;;;;;;17.20;69.81;101079.56;4990270;28;20211;-69
2023/10/07 09:28:46;;;;;;;5.07;2.10;;;;;;;17.25;68.05;101079.28;4993987;28;20248;-69
2023/10/07 09:31:15;;;;;;;3.37;2.07;;;;;;;17.27;69.43;101066.31;4993814;28;20203;-69
2023/10/07 09:33:45;;;;;;;2.93;2.10;;;;;;;17.32;67.58;101071.38;4997748;28;20214;-69
2023/10/07 09:39:13;;;;;;;2.93;2.10;;;;;;;17.39;67.30;101063.50;4986341;28;20369;-69
2023/10/07 09:41:43;;;;;;;3.33;2.40;;;;;;;17.49;68.28;101071.66;4993295;28;20199;-69
2023/10/07 09:44:21;;;;;;;6.53;3.27;;;;;;;17.55;68.13;101069.47;4991292;28;20836;-68
2023/10/07 09:46:52;;;;;;;4.90;2.53;;;;;;;17.61;68.02;101062.69;4992209;28;20222;-69
2023/10/07 09:49:19;;;;;;;3.60;2.27;;;;;;;17.66;66.91;101057.81;4992152;28;20245;-68
2023/10/07 09:51:50;;;;;;;2.83;2.03;;;;;;;17.72;66.74;101061.72;4991549;28;20436;-69
2023/10/07 09:54:36;;;;;;;5.67;2.43;;;;;;;17.80;67.51;101066.00;4989606;28;20218;-69
2023/10/07 09:57:24;;;;;;;5.70;2.30;;;;;;;17.89;66.60;101063.84;4992604;28;20242;-69
2023/10/07 10:00:38;;;;;;;4.00;1.90;;;;;;;17.99;68.70;101065.09;4996192;28;20231;-69
2023/10/07 10:03:12;;;;;;;2.63;2.03;;;;;;;18.08;67.42;101052.22;4995818;28;20333;-69
2023/10/07 10:06:07;;;;;;;5.27;2.23;;;;;;;18.16;66.36;101049.28;4999490;28;20230;-69
2023/10/07 10:08:55;;;;;;;5.57;3.63;;;;;;;18.22;66.45;101060.44;4998857;28;20322;-69
2023/10/07 10:11:31;;;;;;;4.23;2.33;;;;;;;18.24;67.26;101063.50;4997892;28;20218;-69
2023/10/07 10:14:16;;;;;;;3.47;2.20;;;;;;;18.29;67.67;101063.19;4992836;28;20672;-69
2023/10/07 10:16:46;;;;;;;3.57;2.10;;;;;;;18.27;67.35;101066.22;4994494;28;20238;-69
2023/10/07 10:19:25;;;;;;;2.20;1.90;;;;;;;18.30;67.24;101073.50;4997437;28;20238;-69
2023/10/07 10:21:51;;;;;;;3.47;2.17;;;;;;;18.24;66.50;101060.81;4997644;28;20558;-69
2023/10/07 10:24:23;;;;;;;4.97;2.20;;;;;;;18.26;67.25;101045.22;4993184;28;20211;-68
2023/10/07 10:26:50;;;;;;;2.67;2.00;;;;;;;18.25;66.89;101047.09;4998869;28;20902;-68
2023/10/07 10:29:25;;;;;;;3.40;2.20;;;;;;;18.24;68.09;101039.44;4995023;28;20231;-68
2023/10/07 10:31:58;;;;;;;4.47;2.20;;;;;;;18.17;68.34;101044.72;5001691;28;20215;-69
2023/10/07 10:34:26;;;;;;;3.97;2.70;;;;;;;18.19;69.09;101035.19;4995215;28;20207;-69
2023/10/07 10:36:56;;;;;;;4.00;2.40;;;;;;;18.16;67.54;101027.91;4997140;28;20885;-69
2023/10/07 10:39:25;;;;;;;4.30;2.10;;;;;;;18.18;68.42;101022.19;4997803;28;20626;-69
2023/10/07 10:41:53;;;;;;;3.93;2.57;;;;;;;18.23;67.93;101021.88;4998351;28;20341;-68
2023/10/07 10:44:20;;;;;;;4.47;2.53;;;;;;;18.29;70.00;101025.75;4995450;28;20215;-69
2023/10/07 10:46:49;;;;;;;5.10;2.20;;;;;;;18.36;68.72;101021.28;4999269;28;20756;-68
2023/10/07 10:49:17;;;;;;;3.30;2.10;;;;;;;18.46;70.80;101022.50;4998015;28;20234;-69
2023/10/07 10:51:48;;;;;;;3.77;2.07;;;;;;;18.53;67.93;101009.97;5000219;28;20215;-69
2023/10/07 10:54:16;;;;;;;3.40;2.10;;;;;;;18.64;68.92;101018.13;4998742;28;20211;-69
2023/10/07 10:56:50;;;;;;;3.67;2.30;;;;;;;18.69;67.13;101018.53;5000210;28;20222;-69
2023/10/07 10:59:18;;;;;;;3.30;1.90;;;;;;;18.78;68.02;101010.97;4999965;28;20294;-69
2023/10/07 11:01:49;;;;;;;3.53;2.20;;;;;;;18.78;68.25;101002.19;4992497;28;21039;-69
2023/10/07 11:04:19;;;;;;;3.23;1.87;;;;;;;18.81;67.90;100996.09;4989718;28;20207;-69
2023/10/07 11:06:50;;;;;;;4.27;1.90;;;;;;;18.77;65.95;101004.09;5002212;28;21325;-69
2023/10/07 11:09:25;;;;;;;5.27;2.50;;;;;;;18.79;66.04;101001.81;4988561;28;20833;-69
2023/10/07 11:11:53;;;;;;;4.17;2.17;;;;;;;18.80;67.65;101014.06;4998503;28;21003;-69
2023/10/07 11:14:22;;;;;;;5.07;1.83;;;;;;;18.75;67.42;101008.28;4994055;28;20219;-68
2023/10/07 11:16:49;;;;;;;3.33;1.80;;;;;;;18.74;66.21;101012.09;4995946;28;20215;-69
2023/10/07 11:19:16;;;;;;;4.10;1.73;;;;;;;18.71;69.47;101010.13;4996881;28;20227;-68
2023/10/07 11:21:44;;;;;;;4.43;2.23;;;;;;;18.72;67.36;101014.34;4998334;28;20231;-68
2023/10/07 11:24:24;;;;;;;2.70;1.70;;;;;;;18.78;67.05;101015.56;4997827;28;20211;-68
2023/10/07 11:26:51;;;;;;;2.63;1.63;;;;;;;18.84;68.72;101011.41;4997660;28;20228;-68
2023/10/07 11:29:18;;;;;;;3.83;1.67;;;;;;;18.89;68.15;100997.69;4997613;28;21157;-68
2023/10/07 11:31:45;;;;;;;2.77;1.93;;;;;;;18.88;67.95;100999.59;5000064;28;20305;-68
2023/10/07 11:34:13;;;;;;;4.00;1.80;;;;;;;18.89;68.56;100995.00;4997694;28;20208;-68
2023/10/07 11:36:44;;;;;;;3.00;2.03;;;;;;;18.92;68.31;100995.03;4996444;28;20211;-69
2023/10/07 11:39:13;;;;;;;4.60;1.90;;;;;;;18.94;68.23;100992.75;4999069;28;20333;-69
2023/10/07 11:41:41;;;;;;;4.43;2.33;;;;;;;18.94;67.62;100994.66;4995050;28;20238;-68
2023/10/07 11:44:09;;;;;;;4.70;2.03;;;;;;;18.93;66.47;100987.78;4991512;28;20238;-71
2023/10/07 11:46:36;;;;;;;3.30;1.77;;;;;;;18.94;66.46;100984.72;4991039;28;20214;-71